createdAt,value
2017-04-04T00:00:13.287Z,0
2017-04-04T00:00:53.874Z,0
2017-04-04T00:01:34.455Z,0
2017-04-04T00:02:15.014Z,0
2017-04-04T00:02:55.585Z,0
2017-04-04T00:03:36.215Z,0
2017-04-04T00:04:16.770Z,0
2017-04-04T00:04:57.339Z,0
2017-04-04T00:05:37.926Z,0
2017-04-04T00:06:18.533Z,0
2017-04-04T00:06:59.169Z,0
2017-04-04T00:07:39.754Z,0
2017-04-04T00:08:20.335Z,0
2017-04-04T00:09:00.915Z,0
2017-04-04T00:09:41.511Z,0
2017-04-04T00:10:22.080Z,0
2017-04-04T00:11:02.798Z,0
2017-04-04T00:11:43.389Z,0
2017-04-04T00:12:23.971Z,0
2017-04-04T00:13:04.549Z,0
2017-04-04T00:13:45.126Z,0
2017-04-04T00:14:25.705Z,0
2017-04-04T00:15:06.302Z,0
2017-04-04T00:15:46.897Z,0
2017-04-04T00:16:27.479Z,0
2017-04-04T00:17:08.045Z,0
2017-04-04T00:17:48.634Z,0
2017-04-04T00:18:29.233Z,0
2017-04-04T00:19:09.814Z,0
2017-04-04T00:19:50.414Z,0
2017-04-04T00:20:31.017Z,0
2017-04-04T00:21:11.595Z,0
2017-04-04T00:21:52.190Z,0
2017-04-04T00:22:32.785Z,0
2017-04-04T00:23:13.352Z,0
2017-04-04T00:23:53.930Z,0
2017-04-04T00:24:34.611Z,0
2017-04-04T00:25:15.217Z,0
2017-04-04T00:25:55.811Z,0
2017-04-04T00:26:36.406Z,0
2017-04-04T00:27:17.011Z,0
2017-04-04T00:27:57.603Z,0
2017-04-04T00:28:38.173Z,0
2017-04-04T00:29:18.759Z,0
2017-04-04T00:30:00.315Z,0
2017-04-04T00:30:40.895Z,0
2017-04-04T00:31:21.482Z,0
2017-04-04T00:32:02.082Z,0
2017-04-04T00:32:42.652Z,0
2017-04-04T00:33:23.249Z,0
2017-04-04T00:34:03.836Z,0
2017-04-04T00:34:44.443Z,0
2017-04-04T00:35:25.014Z,0
2017-04-04T00:36:05.648Z,0
2017-04-04T00:36:46.213Z,0
2017-04-04T00:37:26.794Z,0
2017-04-04T00:38:07.369Z,0
2017-04-04T00:38:47.976Z,0
2017-04-04T00:39:28.559Z,0
2017-04-04T00:40:09.145Z,0
2017-04-04T00:40:49.721Z,0
2017-04-04T00:41:30.304Z,0
2017-04-04T00:42:10.900Z,0
2017-04-04T00:42:51.479Z,0
2017-04-04T00:43:32.053Z,0
2017-04-04T00:44:12.637Z,0
2017-04-04T00:44:53.230Z,0
2017-04-04T00:45:33.830Z,0
2017-04-04T00:46:14.402Z,0
2017-04-04T00:46:55.014Z,0
2017-04-04T00:47:35.596Z,0
2017-04-04T00:48:16.177Z,0
2017-04-04T00:48:56.759Z,0
2017-04-04T00:49:37.334Z,0
2017-04-04T00:50:17.921Z,0
2017-04-04T00:50:58.512Z,0
2017-04-04T00:51:39.109Z,0
2017-04-04T00:52:19.737Z,0
2017-04-04T00:53:00.311Z,0
2017-04-04T00:53:40.885Z,0
2017-04-04T00:54:21.515Z,0
2017-04-04T00:55:02.097Z,0
2017-04-04T00:55:42.677Z,0
2017-04-04T00:56:23.268Z,0
2017-04-04T00:57:03.848Z,0
2017-04-04T00:57:44.412Z,0
2017-04-04T00:58:25.001Z,0
2017-04-04T00:59:05.592Z,0
2017-04-04T00:59:46.167Z,0
2017-04-04T01:00:26.844Z,0
2017-04-04T01:01:07.492Z,0
2017-04-04T01:01:48.106Z,0
2017-04-04T01:02:28.693Z,0
2017-04-04T01:03:09.315Z,0
2017-04-04T01:03:49.886Z,0
2017-04-04T01:04:30.559Z,0
2017-04-04T01:05:11.207Z,0
2017-04-04T01:05:51.776Z,0
2017-04-04T01:06:32.391Z,0
2017-04-04T01:07:12.963Z,0
2017-04-04T01:07:53.587Z,0
2017-04-04T01:08:34.164Z,0
2017-04-04T01:09:14.751Z,0
2017-04-04T01:09:55.358Z,0
2017-04-04T01:10:35.940Z,0
2017-04-04T01:11:16.536Z,0
2017-04-04T01:11:57.132Z,0
2017-04-04T01:12:37.750Z,0
2017-04-04T01:13:18.382Z,0
2017-04-04T01:13:58.954Z,0
2017-04-04T01:14:39.521Z,0
2017-04-04T01:15:20.230Z,0
2017-04-04T01:16:00.810Z,0
2017-04-04T01:16:41.399Z,0
2017-04-04T01:17:22.050Z,0
2017-04-04T01:18:02.666Z,0
2017-04-04T01:18:43.271Z,0
2017-04-04T01:19:23.859Z,0
2017-04-04T01:20:04.463Z,0
2017-04-04T01:20:45.030Z,0
2017-04-04T01:21:25.645Z,0
2017-04-04T01:22:06.275Z,0
2017-04-04T01:22:46.868Z,0
2017-04-04T01:23:27.463Z,0
2017-04-04T01:24:08.051Z,0
2017-04-04T01:24:48.643Z,0
2017-04-04T01:25:29.235Z,0
2017-04-04T01:26:09.805Z,0
2017-04-04T01:26:50.382Z,0
2017-04-04T01:27:30.984Z,0
2017-04-04T01:28:11.579Z,0
2017-04-04T01:28:52.191Z,0
2017-04-04T01:29:32.795Z,0
2017-04-04T01:30:13.373Z,0
2017-04-04T01:30:53.953Z,0
2017-04-04T01:33:28.938Z,0
2017-04-04T01:34:09.524Z,0
2017-04-04T01:34:50.121Z,0
2017-04-04T01:35:30.697Z,0
2017-04-04T01:36:11.304Z,0
2017-04-04T01:36:52.008Z,0
2017-04-04T01:37:32.605Z,0
2017-04-04T01:38:13.204Z,0
2017-04-04T01:38:53.810Z,0
2017-04-04T01:39:34.392Z,0
2017-04-04T01:40:15.028Z,0
2017-04-04T01:40:55.599Z,0
2017-04-04T01:41:36.166Z,0
2017-04-04T01:42:16.787Z,0
2017-04-04T01:42:57.396Z,0
2017-04-04T01:43:37.976Z,0
2017-04-04T01:44:18.547Z,0
2017-04-04T01:44:59.155Z,0
2017-04-04T01:45:39.734Z,0
2017-04-04T01:46:20.331Z,0
2017-04-04T01:47:00.927Z,0
2017-04-04T01:47:41.536Z,0
2017-04-04T01:48:22.127Z,0
2017-04-04T01:49:02.757Z,0
2017-04-04T01:49:43.370Z,0
2017-04-04T01:50:24.071Z,0
2017-04-04T01:51:04.732Z,0
2017-04-04T01:51:45.329Z,0
2017-04-04T01:52:25.929Z,0
2017-04-04T01:53:06.511Z,0
2017-04-04T01:53:47.119Z,0
2017-04-04T01:54:27.699Z,0
2017-04-04T01:55:08.311Z,0
2017-04-04T01:55:48.889Z,0
2017-04-04T01:56:29.465Z,0
2017-04-04T01:57:10.068Z,0
2017-04-04T01:57:50.661Z,0
2017-04-04T01:58:31.235Z,0
2017-04-04T01:59:11.863Z,0
2017-04-04T01:59:52.434Z,0
2017-04-04T02:00:33.012Z,0
2017-04-04T02:01:13.651Z,0
2017-04-04T02:01:54.260Z,0
2017-04-04T02:04:22.345Z,0
2017-04-04T02:05:02.920Z,0
2017-04-04T02:05:43.498Z,0
2017-04-04T02:06:24.083Z,0
2017-04-04T02:07:04.648Z,0
2017-04-04T02:07:45.217Z,0
2017-04-04T02:08:25.806Z,0
2017-04-04T02:09:06.403Z,0
2017-04-04T02:09:46.937Z,0
2017-04-04T02:10:27.528Z,0
2017-04-04T02:11:08.132Z,0
2017-04-04T02:11:48.699Z,0
2017-04-04T02:12:29.265Z,0
2017-04-04T02:13:09.853Z,0
2017-04-04T02:13:50.438Z,0
2017-04-04T02:14:31.023Z,0
2017-04-04T02:15:11.630Z,0
2017-04-04T02:15:52.198Z,0
2017-04-04T02:16:32.759Z,0
2017-04-04T02:17:13.333Z,0
2017-04-04T02:17:53.915Z,0
2017-04-04T02:18:34.484Z,0
2017-04-04T02:19:15.051Z,0
2017-04-04T02:19:55.635Z,0
2017-04-04T02:20:36.202Z,0
2017-04-04T02:21:16.785Z,0
2017-04-04T02:21:57.357Z,0
2017-04-04T02:22:37.933Z,0
2017-04-04T02:23:18.513Z,0
2017-04-04T02:23:59.101Z,0
2017-04-04T02:24:39.677Z,0
2017-04-04T02:25:20.245Z,0
2017-04-04T02:26:00.815Z,0
2017-04-04T02:26:41.381Z,0
2017-04-04T02:27:21.952Z,0
2017-04-04T02:28:02.510Z,0
2017-04-04T02:28:43.108Z,0
2017-04-04T02:29:23.689Z,0
2017-04-04T02:30:04.278Z,0
2017-04-04T02:30:44.852Z,0
2017-04-04T02:31:25.431Z,0
2017-04-04T02:32:06.014Z,0
2017-04-04T02:32:46.591Z,0
2017-04-04T02:33:27.159Z,0
2017-04-04T02:34:07.723Z,0
2017-04-04T02:34:48.296Z,0
2017-04-04T02:35:28.873Z,0
2017-04-04T02:36:09.446Z,0
2017-04-04T02:36:50.021Z,0
2017-04-04T02:37:30.607Z,0
2017-04-04T02:38:11.176Z,0
2017-04-04T02:38:51.749Z,0
2017-04-04T02:39:32.327Z,0
2017-04-04T02:40:12.918Z,0
2017-04-04T02:40:53.535Z,0
2017-04-04T02:41:34.102Z,0
2017-04-04T02:42:14.689Z,0
2017-04-04T02:42:55.251Z,0
2017-04-04T02:43:35.829Z,0
2017-04-04T02:44:16.414Z,0
2017-04-04T02:44:56.983Z,0
2017-04-04T02:45:37.555Z,0
2017-04-04T02:46:18.138Z,0
2017-04-04T02:46:58.730Z,0
2017-04-04T02:47:39.318Z,0
2017-04-04T02:48:19.892Z,0
2017-04-04T02:49:00.476Z,0
2017-04-04T02:49:41.068Z,0
2017-04-04T02:50:21.647Z,0
2017-04-04T02:51:02.221Z,0
2017-04-04T02:51:42.792Z,0
2017-04-04T02:52:23.402Z,0
2017-04-04T02:53:03.980Z,0
2017-04-04T02:53:44.569Z,0
2017-04-04T02:54:25.134Z,0
2017-04-04T02:55:05.703Z,0
2017-04-04T02:55:46.270Z,0
2017-04-04T02:56:26.838Z,0
2017-04-04T02:57:07.420Z,0
2017-04-04T02:57:48.007Z,0
2017-04-04T02:58:28.579Z,0
2017-04-04T02:59:09.154Z,0
2017-04-04T02:59:49.743Z,0
2017-04-04T03:00:30.318Z,0
2017-04-04T03:01:10.893Z,0
2017-04-04T03:01:51.518Z,0
2017-04-04T03:02:32.146Z,0
2017-04-04T03:03:12.705Z,0
2017-04-04T03:03:53.255Z,0
2017-04-04T03:04:33.851Z,0
2017-04-04T03:05:14.414Z,0
2017-04-04T03:05:54.989Z,0
2017-04-04T03:06:35.559Z,0
2017-04-04T03:07:16.145Z,0
2017-04-04T03:07:56.742Z,0
2017-04-04T03:08:37.321Z,0
2017-04-04T03:09:17.908Z,0
2017-04-04T03:09:58.483Z,0
2017-04-04T03:10:39.097Z,0
2017-04-04T03:11:19.669Z,0
2017-04-04T03:12:00.248Z,0
2017-04-04T03:12:40.839Z,0
2017-04-04T03:13:21.433Z,0
2017-04-04T03:14:02.004Z,0
2017-04-04T03:14:42.591Z,0
2017-04-04T03:15:23.174Z,0
2017-04-04T03:16:03.747Z,0
2017-04-04T03:16:44.321Z,0
2017-04-04T03:17:24.900Z,0
2017-04-04T03:18:05.467Z,0
2017-04-04T03:18:46.040Z,0
2017-04-04T03:19:26.617Z,0
2017-04-04T03:20:07.201Z,0
2017-04-04T03:20:47.801Z,0
2017-04-04T03:21:28.362Z,0
2017-04-04T03:22:08.940Z,0
2017-04-04T03:22:49.514Z,0
2017-04-04T03:23:30.086Z,0
2017-04-04T03:24:10.671Z,0
2017-04-04T03:24:51.244Z,0
2017-04-04T03:25:31.812Z,0
2017-04-04T03:26:12.417Z,0
2017-04-04T03:26:52.995Z,0
2017-04-04T03:27:33.569Z,0
2017-04-04T03:28:14.157Z,0
2017-04-04T03:28:54.745Z,0
2017-04-04T03:29:35.327Z,0
2017-04-04T03:30:15.930Z,0
2017-04-04T03:30:56.504Z,0
2017-04-04T03:31:37.112Z,0
2017-04-04T03:32:17.682Z,0
2017-04-04T03:32:58.277Z,0
2017-04-04T03:33:38.873Z,0
2017-04-04T03:34:19.450Z,0
2017-04-04T03:35:00.050Z,0
2017-04-04T03:35:40.632Z,0
2017-04-04T03:36:21.206Z,0
2017-04-04T03:37:01.792Z,0
2017-04-04T03:37:42.373Z,0
2017-04-04T03:38:22.977Z,0
2017-04-04T03:39:03.554Z,0
2017-04-04T03:39:44.128Z,0
2017-04-04T03:40:24.697Z,0
2017-04-04T03:41:05.282Z,0
2017-04-04T03:41:45.851Z,0
2017-04-04T03:42:26.430Z,0
2017-04-04T03:43:07.010Z,0
2017-04-04T03:43:47.596Z,0
2017-04-04T03:44:28.174Z,0
2017-04-04T03:45:08.747Z,0
2017-04-04T03:45:49.338Z,0
2017-04-04T03:46:29.903Z,0
2017-04-04T03:47:10.488Z,0
2017-04-04T03:47:51.073Z,0
2017-04-04T03:48:31.632Z,0
2017-04-04T03:49:12.231Z,0
2017-04-04T03:49:52.814Z,0
2017-04-04T03:50:33.402Z,0
2017-04-04T03:51:13.982Z,0
2017-04-04T03:51:54.560Z,0
2017-04-04T03:52:35.139Z,0
2017-04-04T03:53:15.713Z,0
2017-04-04T03:53:56.276Z,0
2017-04-04T03:54:36.850Z,0
2017-04-04T03:55:17.440Z,0
2017-04-04T03:55:58.026Z,0
2017-04-04T03:56:38.618Z,0
2017-04-04T03:57:19.199Z,0
2017-04-04T03:57:59.797Z,0
2017-04-04T03:58:40.373Z,0
2017-04-04T03:59:20.954Z,0
2017-04-04T04:00:01.527Z,0
2017-04-04T04:00:42.120Z,0
2017-04-04T04:01:22.713Z,0
2017-04-04T04:02:03.278Z,0
2017-04-04T04:02:43.889Z,0
2017-04-04T04:03:24.504Z,0
2017-04-04T04:04:05.108Z,0
2017-04-04T04:04:45.712Z,0
2017-04-04T04:05:26.306Z,0
2017-04-04T04:06:06.883Z,0
2017-04-04T04:06:47.458Z,0
2017-04-04T04:07:28.034Z,0
2017-04-04T04:08:08.613Z,0
2017-04-04T04:08:49.196Z,0
2017-04-04T04:09:29.770Z,4
2017-04-04T04:10:10.369Z,4
2017-04-04T04:10:50.945Z,0
2017-04-04T04:11:31.537Z,0
2017-04-04T04:12:12.118Z,0
2017-04-04T04:12:52.700Z,4
2017-04-04T04:13:33.288Z,4
2017-04-04T04:14:13.862Z,4
2017-04-04T04:14:54.448Z,4
2017-04-04T04:15:35.031Z,4
2017-04-04T04:16:15.605Z,4
2017-04-04T04:16:56.180Z,8
2017-04-04T04:17:36.751Z,8
2017-04-04T04:18:17.324Z,8
2017-04-04T04:18:57.895Z,12
2017-04-04T04:19:38.484Z,12
2017-04-04T04:20:19.063Z,16
2017-04-04T04:20:59.656Z,16
2017-04-04T04:21:40.254Z,16
2017-04-04T04:22:20.839Z,20
2017-04-04T04:23:01.434Z,20
2017-04-04T04:23:42.023Z,24
2017-04-04T04:24:22.610Z,28
2017-04-04T04:25:03.186Z,28
2017-04-04T04:25:43.772Z,28
2017-04-04T04:26:24.351Z,32
2017-04-04T04:27:04.938Z,32
2017-04-04T04:27:45.514Z,36
2017-04-04T04:28:26.098Z,36
2017-04-04T04:29:06.675Z,40
2017-04-04T04:29:47.246Z,44
2017-04-04T04:30:27.813Z,48
2017-04-04T04:31:08.408Z,52
2017-04-04T04:31:49.007Z,52
2017-04-04T04:32:29.596Z,60
2017-04-04T04:33:10.171Z,60
2017-04-04T04:33:50.751Z,68
2017-04-04T04:34:31.319Z,72
2017-04-04T04:35:11.889Z,80
2017-04-04T04:35:52.477Z,92
2017-04-04T04:36:33.062Z,100
2017-04-04T04:37:13.646Z,108
2017-04-04T04:37:54.228Z,120
2017-04-04T04:38:34.822Z,140
2017-04-04T04:39:15.396Z,152
2017-04-04T04:39:56.000Z,168
2017-04-04T04:40:36.572Z,180
2017-04-04T04:41:17.143Z,192
2017-04-04T04:41:57.742Z,204
2017-04-04T04:42:38.317Z,212
2017-04-04T04:43:18.880Z,216
2017-04-04T04:43:59.471Z,212
2017-04-04T04:44:40.078Z,208
2017-04-04T04:45:20.646Z,204
2017-04-04T04:46:01.248Z,204
2017-04-04T04:46:41.834Z,208
2017-04-04T04:47:22.403Z,216
2017-04-04T04:48:02.989Z,228
2017-04-04T04:48:43.587Z,248
2017-04-04T04:49:24.207Z,284
2017-04-04T04:50:04.793Z,332
2017-04-04T04:50:45.371Z,368
2017-04-04T04:51:25.997Z,400
2017-04-04T04:52:06.586Z,440
2017-04-04T04:52:47.163Z,488
2017-04-04T04:53:27.736Z,524
2017-04-04T04:54:08.324Z,556
2017-04-04T04:54:48.900Z,572
2017-04-04T04:55:29.546Z,576
2017-04-04T04:56:10.131Z,580
2017-04-04T04:56:50.743Z,592
2017-04-04T04:57:31.400Z,612
2017-04-04T04:58:12.050Z,644
2017-04-04T04:58:52.592Z,684
2017-04-04T04:59:33.161Z,740
2017-04-04T05:00:13.731Z,808
2017-04-04T05:00:54.315Z,888
2017-04-04T05:01:34.912Z,960
2017-04-04T05:02:15.498Z,1020
2017-04-04T05:02:56.067Z,1076
2017-04-04T05:03:36.659Z,1128
2017-04-04T05:04:17.229Z,1156
2017-04-04T05:04:57.800Z,1160
2017-04-04T05:05:38.408Z,1180
2017-04-04T05:06:18.981Z,1268
2017-04-04T05:06:59.553Z,1328
2017-04-04T05:07:40.125Z,1372
2017-04-04T05:08:20.712Z,1432
2017-04-04T05:09:01.286Z,1508
2017-04-04T05:09:41.881Z,1572
2017-04-04T05:10:22.476Z,1612
2017-04-04T05:11:03.041Z,1664
2017-04-04T05:11:43.626Z,1720
2017-04-04T05:12:24.203Z,1812
2017-04-04T05:13:04.786Z,1864
2017-04-04T05:13:45.387Z,1924
2017-04-04T05:14:25.976Z,1996
2017-04-04T05:15:06.557Z,2068
2017-04-04T05:15:47.140Z,2128
2017-04-04T05:16:27.717Z,2216
2017-04-04T05:17:08.321Z,2284
2017-04-04T05:17:48.888Z,2356
2017-04-04T05:18:29.463Z,2444
2017-04-04T05:19:10.062Z,2556
2017-04-04T05:19:50.636Z,2696
2017-04-04T05:20:31.224Z,2860
2017-04-04T05:21:11.809Z,3056
2017-04-04T05:21:52.393Z,3260
2017-04-04T05:22:32.953Z,3380
2017-04-04T05:23:13.524Z,3404
2017-04-04T05:23:54.097Z,3396
2017-04-04T05:24:34.697Z,3380
2017-04-04T05:25:15.276Z,3340
2017-04-04T05:25:55.868Z,3360
2017-04-04T05:26:36.420Z,3380
2017-04-04T05:27:17.003Z,3400
2017-04-04T05:27:57.584Z,3456
2017-04-04T05:28:38.159Z,3516
2017-04-04T05:29:18.726Z,3544
2017-04-04T05:29:59.320Z,3556
2017-04-04T05:30:39.898Z,3596
2017-04-04T05:31:20.467Z,3676
2017-04-04T05:32:01.040Z,3704
2017-04-04T05:32:41.639Z,3772
2017-04-04T05:33:22.222Z,3780
2017-04-04T05:34:02.829Z,3800
2017-04-04T05:34:43.400Z,3828
2017-04-04T05:35:23.977Z,3888
2017-04-04T05:36:04.548Z,3956
2017-04-04T05:36:45.137Z,4072
2017-04-04T05:37:25.693Z,4180
2017-04-04T05:38:06.264Z,4280
2017-04-04T05:38:46.867Z,4368
2017-04-04T05:39:27.442Z,4368
2017-04-04T05:40:08.017Z,4400
2017-04-04T05:40:48.601Z,4504
2017-04-04T05:41:29.169Z,4664
2017-04-04T05:42:09.733Z,4844
2017-04-04T05:42:50.321Z,4988
2017-04-04T05:43:30.886Z,5120
2017-04-04T05:44:11.470Z,5196
2017-04-04T05:44:52.065Z,5268
2017-04-04T05:45:32.660Z,5344
2017-04-04T05:46:13.235Z,5444
2017-04-04T05:46:53.807Z,5592
2017-04-04T05:47:34.414Z,5696
2017-04-04T05:48:15.006Z,5724
2017-04-04T05:48:55.576Z,5708
2017-04-04T05:49:36.142Z,5660
2017-04-04T05:50:16.811Z,5588
2017-04-04T05:50:57.388Z,5472
2017-04-04T05:51:37.989Z,5432
2017-04-04T05:52:18.556Z,5464
2017-04-04T05:52:59.144Z,5528
2017-04-04T05:53:39.737Z,5732
2017-04-04T05:54:20.328Z,5996
2017-04-04T05:55:00.893Z,6256
2017-04-04T05:55:41.502Z,6492
2017-04-04T05:56:22.085Z,6712
2017-04-04T05:57:02.680Z,6732
2017-04-04T05:57:43.251Z,6780
2017-04-04T05:58:23.826Z,6832
2017-04-04T05:59:04.401Z,6832
2017-04-04T05:59:45.002Z,6840
2017-04-04T06:00:25.606Z,6768
2017-04-04T06:01:06.203Z,6548
2017-04-04T06:01:46.772Z,6328
2017-04-04T06:02:27.351Z,5452
2017-04-04T06:03:07.929Z,4500
2017-04-04T06:03:48.525Z,3408
2017-04-04T06:04:29.102Z,2572
2017-04-04T06:05:09.677Z,1944
2017-04-04T06:05:50.268Z,1632
2017-04-04T06:06:30.845Z,1448
2017-04-04T06:07:11.417Z,1348
2017-04-04T06:07:52.028Z,1380
2017-04-04T06:08:32.618Z,1392
2017-04-04T06:09:13.206Z,1388
2017-04-04T06:09:53.799Z,1392
2017-04-04T06:10:34.372Z,1448
2017-04-04T06:11:14.960Z,1456
2017-04-04T06:11:55.571Z,1400
2017-04-04T06:12:36.105Z,1412
2017-04-04T06:13:16.684Z,1408
2017-04-04T06:13:57.260Z,1420
2017-04-04T06:14:37.870Z,1484
2017-04-04T06:15:18.457Z,1628
2017-04-04T06:15:59.034Z,1592
2017-04-04T06:16:39.626Z,1476
2017-04-04T06:17:20.188Z,1500
2017-04-04T06:18:00.754Z,1500
2017-04-04T06:18:41.327Z,1464
2017-04-04T06:19:21.902Z,1360
2017-04-04T06:20:02.513Z,1324
2017-04-04T06:20:43.099Z,1348
2017-04-04T06:21:23.675Z,1336
2017-04-04T06:22:04.253Z,1320
2017-04-04T06:22:44.842Z,1320
2017-04-04T06:23:25.448Z,1304
2017-04-04T06:24:06.028Z,1248
2017-04-04T06:24:46.613Z,1220
2017-04-04T06:25:27.178Z,1224
2017-04-04T06:26:07.742Z,1228
2017-04-04T06:26:48.334Z,1296
2017-04-04T06:27:28.915Z,1416
2017-04-04T06:28:09.520Z,1552
2017-04-04T06:28:50.118Z,1636
2017-04-04T06:29:30.687Z,1628
2017-04-04T06:30:11.265Z,1632
2017-04-04T06:30:51.825Z,1780
2017-04-04T06:31:32.411Z,2012
2017-04-04T06:32:12.979Z,2144
2017-04-04T06:32:53.595Z,2164
2017-04-04T06:33:34.158Z,2164
2017-04-04T06:34:14.737Z,2140
2017-04-04T06:34:55.310Z,2144
2017-04-04T06:35:35.921Z,2132
2017-04-04T06:36:16.508Z,2000
2017-04-04T06:36:57.092Z,1940
2017-04-04T06:37:37.684Z,1764
2017-04-04T06:38:18.260Z,1660
2017-04-04T06:38:58.839Z,1664
2017-04-04T06:39:39.423Z,1716
2017-04-04T06:40:19.994Z,1804
2017-04-04T06:41:00.563Z,1984
2017-04-04T06:41:41.150Z,2200
2017-04-04T06:42:21.746Z,2580
2017-04-04T06:43:02.316Z,3136
2017-04-04T06:43:42.899Z,3308
2017-04-04T06:44:23.500Z,3352
2017-04-04T06:45:04.070Z,3400
2017-04-04T06:45:44.658Z,3104
2017-04-04T06:46:25.257Z,2504
2017-04-04T06:47:05.828Z,2184
2017-04-04T06:47:46.406Z,2252
2017-04-04T06:48:26.981Z,2292
2017-04-04T06:49:07.547Z,2264
2017-04-04T06:49:48.127Z,2192
2017-04-04T06:50:28.721Z,2192
2017-04-04T06:51:09.306Z,2148
2017-04-04T06:51:49.910Z,2072
2017-04-04T06:52:30.484Z,2012
2017-04-04T06:53:11.076Z,2064
2017-04-04T06:53:51.670Z,2104
2017-04-04T06:54:32.242Z,2188
2017-04-04T06:55:12.854Z,2208
2017-04-04T06:55:53.429Z,2324
2017-04-04T06:56:34.005Z,2380
2017-04-04T06:57:14.580Z,2344
2017-04-04T06:57:55.179Z,2324
2017-04-04T06:58:35.755Z,2740
2017-04-04T06:59:16.339Z,2788
2017-04-04T06:59:56.941Z,2732
2017-04-04T07:00:37.506Z,2540
2017-04-04T07:01:18.110Z,2560
2017-04-04T07:01:58.692Z,2640
2017-04-04T07:02:39.279Z,2724
2017-04-04T07:03:19.854Z,2696
2017-04-04T07:04:00.445Z,2684
2017-04-04T07:04:41.143Z,2976
2017-04-04T07:05:21.867Z,3508
2017-04-04T07:06:02.466Z,4044
2017-04-04T07:06:43.008Z,4192
2017-04-04T07:07:23.591Z,3876
2017-04-04T07:08:04.406Z,3616
2017-04-04T07:08:45.032Z,4064
2017-04-04T07:09:25.617Z,5044
2017-04-04T07:10:06.222Z,4908
2017-04-04T07:10:46.830Z,4232
2017-04-04T07:11:27.405Z,3688
2017-04-04T07:12:08.039Z,3200
2017-04-04T07:12:48.874Z,3100
2017-04-04T07:13:29.449Z,3096
2017-04-04T07:14:10.075Z,3172
2017-04-04T07:14:50.893Z,3292
2017-04-04T07:15:31.531Z,3492
2017-04-04T07:16:12.108Z,3680
2017-04-04T07:16:52.661Z,3976
2017-04-04T07:17:33.251Z,4540
2017-04-04T07:18:13.876Z,4704
2017-04-04T07:18:54.621Z,4560
2017-04-04T07:19:35.218Z,3900
2017-04-04T07:20:15.814Z,3248
2017-04-04T07:20:56.396Z,3204
2017-04-04T07:21:37.027Z,3444
2017-04-04T07:22:17.595Z,3892
2017-04-04T07:22:58.814Z,4408
2017-04-04T07:23:39.329Z,4512
2017-04-04T07:24:19.927Z,4096
2017-04-04T07:25:00.496Z,3444
2017-04-04T07:25:41.171Z,2868
2017-04-04T07:26:21.747Z,2716
2017-04-04T07:27:02.353Z,2676
2017-04-04T07:27:42.948Z,2580
2017-04-04T07:28:23.556Z,2524
2017-04-04T07:29:04.153Z,2548
2017-04-04T07:29:45.777Z,2624
2017-04-04T07:30:26.991Z,2748
2017-04-04T07:31:07.587Z,2828
2017-04-04T07:31:48.169Z,2876
2017-04-04T07:32:28.751Z,2920
2017-04-04T07:33:09.347Z,2936
2017-04-04T07:33:49.955Z,2932
2017-04-04T07:34:30.538Z,2924
2017-04-04T07:35:11.127Z,2856
2017-04-04T07:35:51.703Z,2804
2017-04-04T07:36:32.295Z,2728
2017-04-04T07:37:12.909Z,2704
2017-04-04T07:37:53.524Z,2620
2017-04-04T07:38:34.101Z,2560
2017-04-04T07:39:14.696Z,2608
2017-04-04T07:39:55.270Z,2724
2017-04-04T07:40:35.864Z,2768
2017-04-04T07:41:16.430Z,2868
2017-04-04T07:41:57.031Z,3064
2017-04-04T07:42:37.620Z,3220
2017-04-04T07:43:18.226Z,3456
2017-04-04T07:43:58.845Z,3936
2017-04-04T07:44:39.466Z,4488
2017-04-04T07:45:20.081Z,5380
2017-04-04T07:46:00.668Z,6692
2017-04-04T07:46:41.247Z,7208
2017-04-04T07:47:21.841Z,6744
2017-04-04T07:48:02.429Z,6644
2017-04-04T07:48:43.087Z,6464
2017-04-04T07:49:23.696Z,8608
2017-04-04T07:50:04.311Z,7424
2017-04-04T07:50:44.895Z,8060
2017-04-04T07:51:25.484Z,7332
2017-04-04T07:52:06.092Z,5916
2017-04-04T07:52:46.836Z,5064
2017-04-04T07:53:27.454Z,4652
2017-04-04T07:54:08.064Z,4488
2017-04-04T07:54:48.695Z,4372
2017-04-04T07:55:29.285Z,4540
2017-04-04T07:56:09.866Z,4756
2017-04-04T07:56:50.455Z,4684
2017-04-04T07:57:31.055Z,4328
2017-04-04T07:58:11.672Z,4004
2017-04-04T07:58:52.267Z,3996
2017-04-04T07:59:32.883Z,4240
2017-04-04T08:00:13.481Z,4460
2017-04-04T08:00:54.082Z,4848
2017-04-04T08:01:34.665Z,5216
2017-04-04T08:02:15.248Z,5116
2017-04-04T08:02:55.913Z,4796
2017-04-04T08:03:36.503Z,4008
2017-04-04T08:04:17.102Z,3772
2017-04-04T08:04:57.684Z,3780
2017-04-04T08:05:38.303Z,3864
2017-04-04T08:06:18.888Z,4028
2017-04-04T08:06:59.491Z,3912
2017-04-04T08:07:40.156Z,3608
2017-04-04T08:08:20.739Z,3268
2017-04-04T08:09:01.340Z,3064
2017-04-04T08:09:41.909Z,2984
2017-04-04T08:10:22.488Z,2932
2017-04-04T08:11:03.065Z,2920
2017-04-04T08:11:43.641Z,2956
2017-04-04T08:12:24.232Z,3032
2017-04-04T08:13:04.822Z,3144
2017-04-04T08:13:45.512Z,3268
2017-04-04T08:14:26.096Z,3480
2017-04-04T08:15:06.688Z,3608
2017-04-04T08:15:47.294Z,3712
2017-04-04T08:16:27.873Z,3724
2017-04-04T08:17:08.459Z,3616
2017-04-04T08:17:49.044Z,3732
2017-04-04T08:18:29.638Z,3764
2017-04-04T08:19:10.247Z,3764
2017-04-04T08:19:50.819Z,3808
2017-04-04T08:20:31.410Z,4468
2017-04-04T08:21:11.999Z,6164
2017-04-04T08:21:52.583Z,11560
2017-04-04T08:22:33.163Z,4476
2017-04-04T08:23:13.758Z,4560
2017-04-04T08:23:54.349Z,4576
2017-04-04T08:24:34.920Z,4772
2017-04-04T08:25:15.514Z,4880
2017-04-04T08:25:56.102Z,5452
2017-04-04T08:26:36.674Z,6016
2017-04-04T08:27:17.289Z,5748
2017-04-04T08:27:57.833Z,5316
2017-04-04T08:28:38.410Z,5564
2017-04-04T08:29:19.008Z,5832
2017-04-04T08:29:59.599Z,5620
2017-04-04T08:30:40.172Z,5480
2017-04-04T08:31:20.747Z,5488
2017-04-04T08:32:01.329Z,5624
2017-04-04T08:32:41.911Z,5700
2017-04-04T08:33:22.487Z,5324
2017-04-04T08:34:03.054Z,4572
2017-04-04T08:34:43.629Z,4084
2017-04-04T08:35:24.200Z,5112
2017-04-04T08:36:04.795Z,6948
2017-04-04T08:36:45.376Z,8356
2017-04-04T08:37:25.957Z,9076
2017-04-04T08:38:06.532Z,8728
2017-04-04T08:38:47.097Z,8508
2017-04-04T08:39:27.672Z,7376
2017-04-04T08:40:08.248Z,6120
2017-04-04T08:40:48.833Z,5724
2017-04-04T08:41:29.404Z,5916
2017-04-04T08:42:10.461Z,6208
2017-04-04T08:42:51.089Z,6108
2017-04-04T08:43:31.675Z,6512
2017-04-04T08:44:12.274Z,7052
2017-04-04T08:44:52.858Z,7056
2017-04-04T08:45:33.457Z,7116
2017-04-04T08:46:14.053Z,7128
2017-04-04T08:46:54.643Z,6748
2017-04-04T08:47:35.237Z,6796
2017-04-04T08:48:15.827Z,6696
2017-04-04T08:48:56.415Z,6824
2017-04-04T08:49:37.006Z,6992
2017-04-04T08:50:17.579Z,6880
2017-04-04T08:50:58.159Z,6320
2017-04-04T08:51:38.767Z,5548
2017-04-04T08:52:19.353Z,7736
2017-04-04T08:52:59.938Z,8876
2017-04-04T08:53:40.523Z,9092
2017-04-04T08:54:21.152Z,9544
2017-04-04T08:55:01.779Z,10552
2017-04-04T08:55:42.417Z,10124
2017-04-04T08:56:23.006Z,9144
2017-04-04T08:57:03.603Z,8064
2017-04-04T08:57:44.195Z,5184
2017-04-04T08:58:24.788Z,3992
2017-04-04T08:59:05.373Z,3416
2017-04-04T08:59:45.970Z,3088
2017-04-04T09:00:26.577Z,2908
2017-04-04T09:01:07.167Z,2812
2017-04-04T09:01:47.818Z,2772
2017-04-04T09:02:28.406Z,2756
2017-04-04T09:03:09.027Z,2816
2017-04-04T09:03:49.620Z,2908
2017-04-04T09:04:30.203Z,3144
2017-04-04T09:05:10.782Z,3492
2017-04-04T09:05:51.361Z,3928
2017-04-04T09:06:31.960Z,4352
2017-04-04T09:07:12.570Z,4588
2017-04-04T09:07:53.159Z,4692
2017-04-04T09:08:33.765Z,4684
2017-04-04T09:09:14.358Z,4620
2017-04-04T09:09:54.981Z,4548
2017-04-04T09:10:35.565Z,4460
2017-04-04T09:11:16.156Z,4384
2017-04-04T09:11:56.741Z,4388
2017-04-04T09:12:37.325Z,4356
2017-04-04T09:13:17.940Z,4296
2017-04-04T09:13:58.544Z,4288
2017-04-04T09:14:39.162Z,4400
2017-04-04T09:15:19.751Z,4480
2017-04-04T09:16:00.333Z,4360
2017-04-04T09:16:40.928Z,4324
2017-04-04T09:17:21.506Z,4324
2017-04-04T09:18:02.083Z,4156
2017-04-04T09:18:42.677Z,3976
2017-04-04T09:19:23.288Z,3900
2017-04-04T09:20:03.873Z,3932
2017-04-04T09:20:44.474Z,4028
2017-04-04T09:21:25.071Z,4004
2017-04-04T09:22:05.679Z,3988
2017-04-04T09:22:46.303Z,3932
2017-04-04T09:23:26.900Z,4008
2017-04-04T09:24:07.488Z,4268
2017-04-04T09:24:48.078Z,4200
2017-04-04T09:25:28.647Z,3904
2017-04-04T09:26:09.226Z,3648
2017-04-04T09:26:49.801Z,3440
2017-04-04T09:27:30.391Z,3324
2017-04-04T09:28:10.963Z,3208
2017-04-04T09:28:51.550Z,3220
2017-04-04T09:29:32.133Z,3324
2017-04-04T09:30:12.700Z,3416
2017-04-04T09:30:53.306Z,3460
2017-04-04T09:31:33.897Z,3428